Aérodrome :
LOGIN :

S'inscrire | Disclaimer

   EN    FR    IT 

 










Légende :    VFR   VFR Marginal   IFR   IFR Intensif   IFR Très Intensif
Visi : 
Plafond : 
>= 8 km
>= 3000ft
5 à 8 km
1000 à 3000 ft
1500m à 5 km
500 à 1000 ft
800 à 1500m
200 à 500 ft
< 800m
< 200 ft
Symboles :   Orages  Brouillard  Fortes neiges  Fortes précipitations  Vent > 20 kt
SIGMETs :   Divers  Orages  Givrage  Turbulence  Onde Orograph.  Cendres Volcan.






- Altitude de l'aérodrome : 1416 ft
- Code IATA : ZRH


LSZH - Zurich

DERNIER METAR :
  • 010220Z VRB03KT CAVOK M02/M07 Q1021 NOSIG

METARs EXPIRÉS :
  • 010150Z 30007KT CAVOK M02/M07 Q1021 NOSIG
  • 010120Z 30006KT CAVOK M03/M07 Q1021 NOSIG
  • 010050Z 31006KT CAVOK M02/M07 Q1021 NOSIG
  • 312350Z VRB04KT CAVOK 00/M08 Q1022 NOSIG

TAF TAF LSZH
Valide du 01 à 03h jusqu'au 02 à 09h UTC


010225Z 0103/0209 VRB03KT CAVOK TX11/0115Z TNM04/0105Z TNM03/0205Z
ATIS : +41 43 816 2295 (DEP) +41 43 816 2294 (ARR)



MET'MAP, la Météo Aéronautique d'un coup d'oeil ! - Copyright ORBIFLY Décembre 2007 - Disclaimer

ORBIFLY MET'MAP TEAM :

Programmation & Développement : Alexandra Zaïnal
Sur une idée originale de : Baudouin d'Aumeries
Assistance à la programmation : Marc-Olivier Méhu
Soutien technique & logistique : Manuel Goepfert

Contact : metmap@orbifly.com




SOURCES & CREDITS :

   NOAA